Terminal Aerodrome Forecast
Issued by NWS

Home | Current Version | Previous Version | Text Only | Print | Product List | Glossary On
Versions: 1 2 3 4 5 6 7 8 9 10 11 12 13 14 15 16 17 18
000
FTUS46 KSEW 272346
TAFBLI
TAF
KBLI 272346Z 2800/2824 33007KT P6SM BKN020 OVC040
      TEMPO 2800/2802 1SM -SHSN BR BKN005 OVC010
     FM280500 13005KT P6SM SCT030 BKN050
     FM281000 VRB03KT P6SM BKN035=

USA.gov is the U.S. government's official web portal to all federal, state and local government web resources and services.